Latest Coastal Weather Observations for Cape Bruny AWS

IDT60701

Issued at 9:41 am EST Wednesday 1 June 2016 (issued every 10 minutes, with the page automatically refreshed every 10 minutes)

About coastal observations | Map of coastal stations | Coastal observations for TAS | Marine services | Other Formats
Station Details ID: 094198 Name: CAPE BRUNY (CAPE BRUNY) Lat: -43.49 Lon: 147.14 Height: 59.7 m
Data from the previous 72 hours. | See also: Recent months at Cape Bruny AWS
Date/Time
EST
Temp

°C
Wind Pressure Rain
since 9am
mm
Weather Cloud Vis
km
Sea
Height
m
Swell
Dir
 
Speed
knots
Gust
knots
hPa Trend Height
m
Period
s
Dir
01/09:30am 5.9 N 15 19 1031.6 - 0.0 - - - - - - -
01/09:00am 5.1 N 15 20 1031.6 - 0.2 - - - - - - -
01/08:30am 5.0 N 15 19 1031.5 - 0.2 - - - - - - -
01/08:00am 4.9 N 14 18 1031.5 - 0.2 - - - - - - -
01/07:30am 4.9 N 15 19 1031.4 - 0.2 - - - - - - -
01/07:00am 4.7 N 15 21 1031.1 - 0.2 - - - - - - -
01/06:30am 4.6 N 15 19 1031.1 - 0.2 - - - - - - -
01/06:00am 5.1 NNE 14 18 1031.0 - 0.2 - - - - - - -
01/05:30am 5.0 NNE 14 18 1030.9 - 0.2 - - - - - - -
01/05:00am 5.2 NNE 14 18 1030.8 - 0.2 - - - - - - -
01/04:30am 5.4 N 14 18 1030.8 - 0.2 - - - - - - -
01/04:00am 5.6 NNE 14 18 1030.9 - 0.2 - - - - - - -
01/03:30am 5.4 N 14 18 1031.0 - 0.2 - - - - - - -
01/03:00am 5.5 N 15 18 1031.1 - 0.2 Recent precip. - - - - - -
01/02:30am 5.6 N 15 19 1031.5 - 0.2 - - - - - - -
01/02:00am 5.9 N 14 18 1031.5 - 0.0 - - - - - - -
01/01:30am 6.1 N 13 17 1031.5 - 0.0 - - - - - - -
01/01:00am 6.3 N 12 15 1031.6 - 0.0 - - - - - - -
01/12:30am 6.4 N 12 15 1031.7 - 0.0 - - - - - - -
01/12:00am 6.7 N 13 16 1032.0 - 0.0 - - - - - - -
 
Date/Time
EST
Temp

°C
Wind Pressure Rain
since 9am
mm
Weather Cloud Vis
km
Sea
Height
m
Swell
Dir
 
Speed
knots
Gust
knots
hPa Trend Height
m
Period
s
Dir
31/11:30pm 6.6 NNE 11 14 1032.1 - 0.0 - - - - - - -
31/11:00pm 6.5 NNE 11 14 1032.2 - 0.0 - - - - - - -
31/10:30pm 6.8 NNE 11 14 1032.4 - 0.0 - - - - - - -
31/10:00pm 7.0 N 11 15 1032.5 - 0.0 - - - - - - -
31/09:30pm 7.0 N 11 13 1032.4 - 0.0 - - - - - - -
31/09:00pm 7.0 N 9 11 1032.4 - 0.0 - - - - - - -
31/08:30pm 7.2 N 10 12 1032.4 - 0.0 - - - - - - -
31/08:00pm 7.3 N 9 11 1032.4 - 0.0 - - - - - - -
31/07:30pm 7.6 NNE 9 11 1032.3 - 0.0 - - - - - - -
31/07:00pm 7.9 N 10 11 1032.2 - 0.0 - - - - - - -
31/06:30pm 7.6 N 8 10 1032.1 - 0.0 - - - - - - -
31/06:00pm 7.7 N 9 11 1031.9 - 0.0 - - - - - - -
31/05:30pm 7.8 N 9 10 1031.6 - 0.0 - - - - - - -
31/05:00pm 7.6 N 8 9 1031.5 - 0.0 - - - - - - -
31/04:30pm 8.3 NNE 7 7 1031.6 - 0.0 - - - - - - -
31/04:00pm 9.5 N 7 8 1031.6 - 0.0 - - - - - - -
31/03:30pm 10.3 N 6 8 1031.4 - 0.0 - - - - - - -
31/03:00pm 10.8 N 8 10 1031.4 - 0.0 - - - - - - -
31/02:30pm 11.0 N 6 8 1031.5 - 0.0 - - - - - - -
31/02:00pm 10.9 N 7 9 1031.7 - 0.0 - - - - - - -
31/01:30pm 10.5 NNE 9 11 1032.0 - 0.0 - - - - - - -
31/01:00pm 10.1 NNE 9 11 1032.2 - 0.0 - - - - - - -
31/12:30pm 9.5 NNE 10 13 1032.4 - 0.0 - - - - - - -
31/12:00pm 9.4 NNE 10 13 1032.7 - 0.0 - - - - - - -
31/11:30am 8.5 NNE 11 14 1033.0 - 0.0 - - - - - - -
31/11:00am 7.9 N 12 17 1033.4 - 0.0 - - - - - - -
31/10:30am 7.2 N 13 19 1033.6 - 0.0 - - - - - - -
31/10:00am 6.8 N 13 18 1033.5 - 0.0 - - - - - - -
31/09:30am 6.3 N 12 15 1033.6 - 0.0 - - - - - - -
31/09:00am 5.4 N 12 17 1033.4 - 0.2 - - - - - - -
31/08:30am 4.9 N 13 16 1033.3 - 0.2 - - - - - - -
31/08:00am 4.4 N 12 15 1033.2 - 0.2 - - - - - - -
31/07:30am 4.1 N 12 15 1032.8 - 0.2 - - - - - - -
31/07:00am 4.3 N 12 16 1032.5 - 0.2 - - - - - - -
31/06:30am 4.1 N 13 15 1032.3 - 0.2 - - - - - - -
31/06:00am 4.0 N 11 14 1032.1 - 0.0 - - - - - - -
31/05:30am 4.3 N 11 14 1031.9 - 0.0 - - - - - - -
31/05:00am 4.2 N 12 15 1031.8 - 0.0 - - - - - - -
31/04:30am 4.3 N 10 13 1031.5 - 0.0 - - - - - - -
31/04:00am 4.6 N 11 12 1031.4 - 0.0 - - - - - - -
31/03:30am 4.7 N 11 13 1031.4 - 0.0 - - - - - - -
31/03:00am 4.7 N 10 13 1031.4 - 0.0 - - - - - - -
31/02:30am 4.8 N 11 14 1031.4 - 0.0 - - - - - - -
31/02:00am 5.0 N 11 14 1031.3 - 0.0 - - - - - - -
31/01:30am 5.2 N 11 13 1031.2 - 0.0 - - - - - - -
31/01:00am 5.2 N 11 13 1031.3 - 0.0 - - - - - - -
31/12:30am 5.6 N 10 12 1031.4 - 0.0 - - - - - - -
31/12:00am 6.0 N 11 13 1031.5 - 0.0 - - - - - - -
 
Date/Time
EST
Temp

°C
Wind Pressure Rain
since 9am
mm
Weather Cloud Vis
km
Sea
Height
m
Swell
Dir
 
Speed
knots
Gust
knots
hPa Trend Height
m
Period
s
Dir
30/11:30pm 6.6 N 8 9 1031.5 - 0.0 - - - - - - -
30/11:00pm 7.6 N 8 10 1031.5 - 0.0 - - - - - - -
30/10:30pm 7.9 N 7 10 1031.4 - 0.0 - - - - - - -
30/10:00pm 7.7 N 7 10 1031.2 - 0.0 - - - - - - -
30/09:30pm 8.1 N 8 11 1031.1 - 0.0 - - - - - - -
30/09:00pm 7.8 NNE 6 6 1030.9 - 0.0 - - - - - - -
30/08:30pm 8.2 N 8 9 1030.6 - 0.0 - - - - - - -
30/08:00pm 8.2 N 8 9 1030.4 - 0.0 - - - - - - -
30/07:30pm 8.4 N 7 8 1030.3 - 0.0 - - - - - - -
30/07:00pm 8.6 N 7 10 1030.0 - 0.0 - - - - - - -
30/06:30pm 8.8 NNW 7 8 1029.8 - 0.0 - - - - - - -
30/06:00pm 8.7 N 9 10 1029.6 - 0.0 - - - - - - -
30/05:30pm 8.8 NNW 6 7 1029.3 - 0.0 - - - - - - -
30/05:00pm 8.9 NNW 5 7 1028.9 - 0.0 - - - - - - -
30/04:30pm 9.0 NNW 5 6 1028.7 - 0.0 - - - - - - -
30/04:00pm 9.6 NW 5 6 1028.3 - 0.0 - - - - - - -
30/03:30pm 9.9 NW 4 7 1028.0 - 0.0 - - - - - - -
30/03:00pm 10.1 SW 4 6 1028.0 - 0.0 - - - - - - -
30/02:30pm 10.0 WSW 6 9 1027.8 - 0.0 - - - - - - -
30/02:00pm 10.2 W 6 10 1027.6 - 0.0 - - - - - - -
30/01:30pm 10.6 W 6 11 1027.6 - 0.0 - - - - - - -
30/01:00pm 10.4 W 9 11 1027.6 - 0.0 - - - - - - -
30/12:30pm 10.5 W 9 12 1027.6 - 0.0 - - - - - - -
30/12:00pm 10.4 W 8 11 1027.8 - 0.0 - - - - - - -
30/11:30am 10.2 WNW 6 8 1027.9 - 0.0 - - - - - - -
30/11:00am 9.8 WNW 9 11 1028.0 - 0.0 - - - - - - -
30/10:30am 9.6 NW 7 12 1027.9 - 0.0 - - - - - - -
30/10:00am 9.0 NW 11 13 1027.7 - 0.0 - - - - - - -
30/09:30am 9.1 WNW 10 15 1027.4 - 0.0 - - - - - - -
30/09:00am 8.8 WNW 11 15 1027.2 - 8.4 - - - - - - -
30/08:30am 8.8 W 11 16 1027.0 - 8.4 - - - - - - -
30/08:00am 8.4 WNW 14 16 1026.7 - 8.4 - - - - - - -
30/07:30am 8.4 NW 10 13 1026.2 - 8.4 - - - - - - -
30/07:00am 8.4 NW 10 12 1026.0 - 8.4 - - - - - - -
30/06:30am 8.6 NW 9 12 1025.7 - 8.4 - - - - - - -
30/06:00am 8.5 WNW 7 11 1025.4 - 8.4 - - - - - - -
30/05:30am 8.3 WNW 7 8 1025.1 - 8.4 - - - - - - -
30/05:00am 8.5 W 11 14 1024.8 - 8.4 - - - - - - -
30/04:30am 8.6 W 12 15 1024.5 - 8.4 - - - - - - -
30/04:00am 8.6 W 14 17 1024.2 - 8.4 - - - - - - -
30/03:30am 8.7 W 14 18 1023.9 - 8.4 - - - - - - -
30/03:00am 8.3 W 14 17 1023.7 - 8.4 - - - - - - -
30/02:30am 8.1 W 14 16 1023.7 - 8.4 - - - - - - -
30/02:00am 8.5 W 15 18 1023.3 - 8.4 - - - - - - -
30/01:30am 8.9 W 13 17 1023.1 - 8.4 - - - - - - -
30/01:00am 8.7 WSW 13 19 1022.8 - 8.4 - - - - - - -
30/12:30am 8.5 W 15 18 1022.7 - 8.4 - - - - - - -
30/12:00am 8.4 W 14 19 1022.6 - 8.4 - - - - - - -
 
Date/Time
EST
Temp

°C
Wind Pressure Rain
since 9am
mm
Weather Cloud Vis
km
Sea
Height
m
Swell
Dir
 
Speed
knots
Gust
knots
hPa Trend Height
m
Period
s
Dir
29/11:30pm 8.8 W 16 21 1022.4 - 8.4 - - - - - - -
29/11:00pm 8.6 W 15 19 1022.1 - 8.4 - - - - - - -
29/10:30pm 8.9 W 14 18 1022.1 - 8.4 - - - - - - -
29/10:00pm 8.9 W 14 19 1021.7 - 8.4 - - - - - - -
29/09:30pm 8.9 WSW 16 20 1021.7 - 8.4 - - - - - - -
29/09:00pm 9.3 WSW 18 23 1021.2 - 8.4 - - - - - - -
29/08:30pm 9.5 W 13 16 1021.0 - 8.4 - - - - - - -
29/08:00pm 9.5 WSW 13 17 1020.7 - 8.4 - - - - - - -
29/07:30pm 9.3 W 10 13 1020.4 - 8.2 - - - - - - -
29/07:00pm 9.3 W 15 18 1020.0 - 7.2 - - - - - - -
29/06:30pm 9.5 WSW 12 17 1019.6 - 7.0 - - - - - - -
29/06:00pm 9.7 W 12 15 1019.3 - 6.8 - - - - - - -
29/05:30pm 9.8 WSW 11 17 1018.9 - 6.8 - - - - - - -
29/05:00pm 10.0 SSW 8 15 1018.5 - 6.8 - - - - - - -
29/04:30pm 10.0 S 10 16 1018.1 - 6.8 - - - - - - -
29/04:00pm 9.4 SSW 7 11 1018.0 - 6.4 - - - - - - -
29/03:30pm 10.3 SSW 12 20 1017.7 - 5.0 - - - - - - -
29/03:00pm 10.6 S 10 16 1017.3 - 5.0 - - - - - - -
29/02:30pm 10.3 S 14 23 1016.9 - 5.0 - - - - - - -
29/02:00pm 10.6 SSW 10 18 1016.6 - 5.0 - - - - - - -
29/01:30pm 11.0 SW 13 21 1016.4 - 4.2 - - - - - - -
29/01:20pm 10.7 SW 15 21 1016.2 - 4.2 - - - - - - -
29/01:00pm 9.7 SSE 8 13 1016.1 - 4.2 - - - - - - -
29/12:30pm 9.6 S 12 18 1016.0 - 2.4 - - - - - - -
29/12:00pm 10.1 SW 9 16 1016.0 - 1.0 - - - - - - -
29/11:50am 10.3 W 11 17 1015.8 - 1.0 - - - - - - -
29/11:30am 10.9 WSW 4 7 1015.9 - 1.0 - - - - - - -
29/11:00am 10.1 SSE 5 9 1015.9 - 1.0 - - - - - - -
29/10:30am 11.9 SSE 7 9 1015.7 - 0.0 - - - - - - -
29/10:00am 11.2 SSE 9 14 1015.4 - 0.0 - - - - - - -

Other Formats:

Comma delimited format used in spreadsheet applications
http://www.bom.gov.au/fwo/IDT60701/IDT60701.95967.axf

JavaScript Object Notation format (JSON) in row-major order
http://www.bom.gov.au/fwo/IDT60701/IDT60701.95967.json